Time;durP1;ratioP1;P1;durP2;ratioP2;P2;SDS_P1;SDS_P2;PMS_P1;PMS_P2;Temp;Humidity;BMP_temperature;BMP_pressure;BME280_temperature;BME280_humidity;BME280_pressure;Samples;Min_cycle;Max_cycle;Signal;HPM_P1;HPM_P2
2022/04/19 00:00:49;;;;;;;25.58;15.65;;;;;;;11.28;55.67;101649.00;4939815;28;20516;-59
2022/04/19 00:03:15;;;;;;;27.30;16.23;;;;;;;11.25;56.73;101648.91;4936065;28;20050;-62
2022/04/19 00:05:41;;;;;;;24.40;16.05;;;;;;;11.24;57.64;101648.00;4941578;28;20043;-60
2022/04/19 00:08:08;;;;;;;24.48;15.68;;;;;;;11.22;57.27;101646.25;4942806;28;20376;-59
2022/04/19 00:10:40;;;;;;;25.55;15.68;;;;;;;11.17;57.11;101643.50;4937418;28;20047;-61
2022/04/19 00:13:07;;;;;;;28.15;16.27;;;;;;;11.16;56.85;101641.72;4940125;28;20054;-58
2022/04/19 00:15:34;;;;;;;26.63;15.98;;;;;;;11.16;56.43;101643.50;4937376;28;20574;-59
2022/04/19 00:18:00;;;;;;;28.35;17.17;;;;;;;11.14;56.83;101640.84;4936632;28;20601;-59
2022/04/19 00:20:28;;;;;;;28.25;17.17;;;;;;;11.13;57.12;101632.97;4942682;28;20145;-59
2022/04/19 00:22:54;;;;;;;28.38;16.92;;;;;;;11.14;56.94;101634.72;4931659;28;20359;-59
2022/04/19 00:25:20;;;;;;;27.17;16.40;;;;;;;11.10;57.48;101638.97;4928509;28;20137;-59
2022/04/19 00:27:45;;;;;;;26.92;16.75;;;;;;;11.07;58.03;101640.66;4934403;28;20058;-58
2022/04/19 00:30:12;;;;;;;34.65;18.50;;;;;;;11.03;59.35;101646.66;4948869;28;20038;-60
2022/04/19 00:32:39;;;;;;;26.55;16.65;;;;;;;11.05;58.80;101642.31;4929699;28;20070;-59
2022/04/19 00:35:09;;;;;;;24.60;16.00;;;;;;;11.07;58.10;101638.91;4932699;28;20615;-59
2022/04/19 00:37:35;;;;;;;28.55;17.25;;;;;;;11.03;58.49;101639.72;4937231;28;22888;-59
2022/04/19 00:40:03;;;;;;;31.95;17.48;;;;;;;11.00;58.31;101637.00;4938063;28;20043;-58
2022/04/19 00:42:30;;;;;;;27.45;16.70;;;;;;;10.98;58.34;101625.63;4940453;28;20090;-59
2022/04/19 00:44:58;;;;;;;31.25;17.27;;;;;;;10.96;58.22;101624.75;4940161;28;20483;-60
2022/04/19 00:47:23;;;;;;;27.70;16.58;;;;;;;10.96;57.87;101623.03;4936159;28;20398;-59
2022/04/19 00:49:49;;;;;;;28.55;16.45;;;;;;;10.97;57.35;101624.78;4942561;28;20046;-59
2022/04/19 00:52:15;;;;;;;26.27;16.48;;;;;;;10.94;57.86;101611.66;4941132;28;20410;-60
2022/04/19 00:54:41;;;;;;;27.25;16.70;;;;;;;10.92;58.27;101621.16;4941344;28;20050;-58
2022/04/19 00:57:07;;;;;;;27.52;17.20;;;;;;;10.89;58.59;101621.09;4942972;28;20154;-59
2022/04/19 00:59:33;;;;;;;26.58;16.40;;;;;;;10.87;58.93;101620.19;4939410;28;20561;-61
2022/04/19 01:02:00;;;;;;;27.30;16.90;;;;;;;10.84;59.11;101620.13;4929019;28;20035;-59
2022/04/19 01:04:26;;;;;;;26.70;16.88;;;;;;;10.81;59.91;101620.03;4934203;28;20469;-59
2022/04/19 01:06:52;;;;;;;29.52;17.42;;;;;;;10.78;59.78;101614.75;4936982;28;20926;-59
2022/04/19 01:09:19;;;;;;;29.27;17.20;;;;;;;10.77;59.43;101613.00;4932507;28;20042;-59
2022/04/19 01:14:28;;;;;;;26.60;16.60;;;;;;;10.75;59.36;101619.88;4937703;28;20132;-59
2022/04/19 01:16:55;;;;;;;28.30;16.65;;;;;;;10.75;58.69;101611.16;4946630;28;20134;-59
2022/04/19 01:19:21;;;;;;;27.98;17.00;;;;;;;10.72;59.00;101613.72;4927380;28;20042;-60
2022/04/19 01:21:50;;;;;;;28.55;16.92;;;;;;;10.70;59.85;101608.47;4944095;28;20054;-58
2022/04/19 01:24:18;;;;;;;28.08;17.63;;;;;;;10.67;60.10;101605.78;4940169;28;20051;-59
2022/04/19 01:26:44;;;;;;;27.52;16.58;;;;;;;10.68;59.98;101606.66;4945889;28;20150;-60
2022/04/19 01:29:11;;;;;;;29.25;17.55;;;;;;;10.66;59.89;101604.03;4938072;28;20035;-58
2022/04/19 01:31:38;;;;;;;28.95;17.08;;;;;;;10.66;59.95;101609.25;4941506;28;20055;-59
2022/04/19 01:34:03;;;;;;;27.80;17.15;;;;;;;10.64;60.06;101610.91;4946501;28;20498;-59
2022/04/19 01:36:29;;;;;;;29.33;17.75;;;;;;;10.60;59.89;101606.47;4935400;28;20038;-59
2022/04/19 01:38:54;;;;;;;27.35;16.52;;;;;;;10.58;59.86;101609.03;4940761;28;20047;-60
2022/04/19 01:41:20;;;;;;;28.73;16.83;;;;;;;10.55;59.72;101608.94;4934511;28;20674;-59
2022/04/19 01:43:45;;;;;;;28.83;17.45;;;;;;;10.49;59.67;101607.94;4946566;28;20137;-59
2022/04/19 01:46:11;;;;;;;28.15;17.27;;;;;;;10.49;59.49;101607.94;4948979;28;20451;-61
2022/04/19 01:48:36;;;;;;;29.67;17.08;;;;;;;10.46;59.37;101598.31;4945333;28;20046;-59
2022/04/19 01:51:02;;;;;;;29.38;17.13;;;;;;;10.45;59.06;101609.56;4941633;28;20101;-59
2022/04/19 01:53:28;;;;;;;28.88;15.98;;;;;;;10.44;59.47;101599.09;4933327;28;20621;-59
2022/04/19 01:55:53;;;;;;;29.13;17.55;;;;;;;10.40;59.26;101600.75;4940014;28;20047;-60
2022/04/19 01:58:19;;;;;;;28.92;17.10;;;;;;;10.39;59.80;101592.88;4949473;28;20161;-60
2022/04/19 02:00:44;;;;;;;27.85;16.38;;;;;;;10.37;60.16;101602.41;4941139;28;20081;-58
2022/04/19 02:03:09;;;;;;;28.73;17.50;;;;;;;10.34;59.97;101600.59;4936530;28;20085;-58
2022/04/19 02:05:35;;;;;;;28.50;17.08;;;;;;;10.31;60.14;101595.28;4939834;28;20054;-59
2022/04/19 02:08:00;;;;;;;30.25;18.00;;;;;;;10.28;60.44;101595.22;4938221;28;20532;-59
2022/04/19 02:10:25;;;;;;;29.77;17.70;;;;;;;10.27;60.46;101595.19;4948060;28;20045;-59
2022/04/19 02:12:51;;;;;;;29.05;17.17;;;;;;;10.24;60.06;101593.41;4933784;28;20490;-59
2022/04/19 02:15:17;;;;;;;28.42;16.98;;;;;;;10.21;60.33;101590.69;4937637;28;20096;-59
2022/04/19 02:17:48;;;;;;;32.05;18.70;;;;;;;10.18;61.02;101589.75;4944569;28;20046;-59
2022/04/19 02:20:16;;;;;;;32.20;18.30;;;;;;;10.14;61.01;101591.34;4941081;28;20049;-59
2022/04/19 02:22:45;;;;;;;30.38;17.77;;;;;;;10.10;61.30;101584.28;4937522;28;20497;-59
2022/04/19 02:25:13;;;;;;;32.90;18.40;;;;;;;10.05;61.51;101581.56;4942423;28;20042;-58
2022/04/19 02:27:40;;;;;;;32.55;18.67;;;;;;;10.07;61.72;101582.47;4944042;28;20081;-59
2022/04/19 02:30:13;;;;;;;32.88;18.67;;;;;;;10.03;61.47;101585.84;4939893;28;20331;-59
2022/04/19 02:32:51;;;;;;;31.95;18.58;;;;;;;10.00;62.12;101590.09;4937877;28;20073;-59
2022/04/19 02:35:18;;;;;;;31.52;18.40;;;;;;;9.96;62.71;101588.25;4938040;28;20529;-60
2022/04/19 02:37:55;;;;;;;30.83;18.42;;;;;;;9.94;62.36;101585.59;4939094;28;20042;-59
2022/04/19 02:40:22;;;;;;;33.67;19.23;;;;;;;9.92;62.54;101584.69;4945859;28;20129;-59
2022/04/19 02:42:51;;;;;;;32.65;19.67;;;;;;;9.91;62.35;101584.63;4945728;28;20311;-59
2022/04/19 02:45:19;;;;;;;33.80;19.48;;;;;;;9.90;62.54;101583.75;4938743;28;20125;-58
2022/04/19 02:47:45;;;;;;;35.67;19.88;;;;;;;9.89;62.20;101587.19;4943305;28;20042;-59
2022/04/19 02:50:11;;;;;;;37.35;20.33;;;;;;;9.86;62.16;101581.03;4944130;28;20520;-58
2022/04/19 02:52:36;;;;;;;36.42;20.65;;;;;;;9.88;62.10;101592.38;4929253;28;20218;-59
2022/04/19 02:55:02;;;;;;;34.50;19.98;;;;;;;9.88;62.36;101590.63;4946532;28;20604;-59
2022/04/19 02:57:27;;;;;;;33.17;20.42;;;;;;;9.86;61.95;101586.22;4934186;28;20425;-58
2022/04/19 02:59:53;;;;;;;34.05;20.27;;;;;;;9.87;62.55;101585.41;4935506;28;20291;-59
2022/04/19 03:02:19;;;;;;;36.53;21.27;;;;;;;9.86;62.43;101589.72;4932276;28;20101;-60
2022/04/19 03:04:44;;;;;;;38.20;20.90;;;;;;;9.82;62.53;101587.84;4939410;28;20110;-58
2022/04/19 03:07:09;;;;;;;38.20;20.67;;;;;;;9.81;62.12;101580.91;4938891;28;20782;-58
2022/04/19 03:09:35;;;;;;;39.10;22.50;;;;;;;9.74;62.92;101579.84;4938902;28;20053;-60
2022/04/19 03:12:01;;;;;;;35.45;21.08;;;;;;;9.70;62.93;101577.97;4944330;28;20913;-60
2022/04/19 03:14:30;;;;;;;36.00;20.42;;;;;;;9.65;63.58;101576.97;4943768;28;20043;-60
2022/04/19 03:16:56;;;;;;;33.60;20.08;;;;;;;9.59;63.86;101582.00;4940926;28;20050;-59
2022/04/19 03:19:21;;;;;;;37.80;20.42;;;;;;;9.57;63.71;101583.72;4927932;28;20298;-59
2022/04/19 03:21:46;;;;;;;39.17;20.98;;;;;;;9.61;63.47;101585.56;4946463;28;20369;-60
2022/04/19 03:29:39;;;;;;;39.90;21.98;;;;;;;9.53;64.39;101580.94;4938773;28;20073;-59
2022/04/19 03:32:05;;;;;;;38.50;22.00;;;;;;;9.54;64.18;101575.78;4943325;28;20038;-60
2022/04/19 03:34:39;;;;;;;37.08;21.75;;;;;;;9.49;63.91;101580.00;4941200;28;20050;-59
2022/04/19 03:37:05;;;;;;;40.47;21.52;;;;;;;9.45;64.58;101580.75;4939467;28;20046;-59
2022/04/19 03:39:30;;;;;;;36.78;21.17;;;;;;;9.44;64.84;101578.97;4932569;28;20734;-60
2022/04/19 03:41:58;;;;;;;40.22;22.25;;;;;;;9.48;64.88;101585.16;4940362;28;20051;-59
2022/04/19 03:44:25;;;;;;;35.53;20.92;;;;;;;9.42;64.62;101577.16;4943192;28;20088;-58
2022/04/19 03:47:10;;;;;;;37.60;21.77;;;;;;;9.38;65.13;101577.91;4940744;28;20332;-58
2022/04/19 03:49:41;;;;;;;40.58;21.92;;;;;;;9.31;65.29;101572.53;4936867;28;20046;-59
2022/04/19 03:52:07;;;;;;;35.63;20.83;;;;;;;9.30;65.09;101577.69;4929648;28;20058;-58
2022/04/19 03:54:34;;;;;;;37.42;21.67;;;;;;;9.28;65.04;101574.16;4939466;28;20138;-58
2022/04/19 03:57:01;;;;;;;36.80;21.58;;;;;;;9.25;65.76;101576.66;4943016;28;20279;-59
2022/04/19 03:59:26;;;;;;;38.78;22.15;;;;;;;9.25;64.97;101574.97;4930043;28;20879;-58
2022/04/19 04:01:52;;;;;;;42.60;23.20;;;;;;;9.22;65.42;101576.56;4941772;28;20453;-59
2022/04/19 04:04:17;;;;;;;36.05;21.10;;;;;;;9.20;65.56;101584.34;4935951;28;20062;-59
2022/04/19 04:06:42;;;;;;;37.95;21.45;;;;;;;9.16;65.32;101581.59;4940328;28;20708;-60
2022/04/19 04:09:08;;;;;;;39.20;22.38;;;;;;;9.13;65.49;101582.41;4938859;28;20577;-58
2022/04/19 04:11:33;;;;;;;38.92;22.10;;;;;;;9.10;65.87;101579.69;4936189;28;20042;-59
2022/04/19 04:13:59;;;;;;;40.05;22.90;;;;;;;9.10;65.65;101578.78;4940638;28;20046;-58
2022/04/19 04:16:24;;;;;;;40.25;22.33;;;;;;;9.06;66.54;101575.22;4941727;28;20156;-57
2022/04/19 04:18:49;;;;;;;41.55;22.52;;;;;;;9.05;66.25;101576.06;4934580;28;20031;-59
2022/04/19 04:21:15;;;;;;;38.45;22.65;;;;;;;9.03;66.45;101576.84;4914420;28;20133;-60
2022/04/19 04:23:40;;;;;;;40.38;22.70;;;;;;;9.00;66.83;101580.25;4922427;28;20034;-59
2022/04/19 04:26:05;;;;;;;42.22;24.20;;;;;;;8.98;67.48;101581.91;4941274;28;20146;-59
2022/04/19 04:28:30;;;;;;;46.45;25.40;;;;;;;8.94;67.86;101580.94;4939244;28;20060;-59
2022/04/19 04:30:56;;;;;;;43.85;24.45;;;;;;;9.00;67.16;101580.25;4922628;28;20585;-59
2022/04/19 04:33:21;;;;;;;45.67;25.42;;;;;;;8.95;67.77;101587.03;4932609;28;20043;-59
2022/04/19 04:35:47;;;;;;;43.80;25.35;;;;;;;8.94;67.96;101587.84;4943097;28;20046;-59
2022/04/19 04:38:12;;;;;;;45.03;25.73;;;;;;;8.93;67.83;101588.69;4942353;28;20050;-59
2022/04/19 04:40:37;;;;;;;47.80;26.13;;;;;;;8.98;68.17;101589.72;4943618;28;20047;-59
2022/04/19 04:43:03;;;;;;;44.75;25.83;;;;;;;9.02;68.34;101593.31;4943946;28;20429;-60
2022/04/19 04:45:29;;;;;;;45.72;24.88;;;;;;;9.04;67.78;101589.91;4909124;28;20624;-58
2022/04/19 04:50:38;;;;;;;46.47;25.60;;;;;;;9.09;68.12;101592.66;4942802;28;20053;-58
2022/04/19 04:53:04;;;;;;;45.55;25.20;;;;;;;9.18;67.77;101596.41;4932375;28;20043;-58
2022/04/19 04:55:29;;;;;;;50.78;25.90;;;;;;;9.23;67.69;101594.84;4941224;28;20403;-59
2022/04/19 04:57:58;;;;;;;46.78;25.88;;;;;;;9.28;68.03;101588.03;4942103;28;20034;-59
2022/04/19 05:00:25;;;;;;;44.33;25.55;;;;;;;9.36;68.01;101594.38;4943411;28;20075;-59
2022/04/19 05:02:51;;;;;;;50.63;26.50;;;;;;;9.47;68.15;101593.78;4941143;28;20295;-59
2022/04/19 05:05:16;;;;;;;49.00;28.02;;;;;;;9.53;68.49;101586.16;4931365;28;20074;-61
2022/04/19 05:07:41;;;;;;;48.78;28.15;;;;;;;9.62;68.63;101596.84;4947269;28;20147;-59
2022/04/19 05:10:07;;;;;;;50.85;28.15;;;;;;;9.66;68.67;101593.47;4948001;28;20101;-58
2022/04/19 05:12:33;;;;;;;48.60;27.13;;;;;;;9.70;68.74;101593.59;4928381;28;20121;-58
2022/04/19 05:14:58;;;;;;;44.38;27.02;;;;;;;9.82;68.58;101600.03;4936329;28;20409;-58
2022/04/19 05:17:26;;;;;;;51.85;27.77;;;;;;;9.90;68.45;101599.38;4934657;28;20133;-58
2022/04/19 05:19:54;;;;;;;48.90;27.65;;;;;;;10.00;68.10;101596.16;4947186;28;20466;-58
2022/04/19 05:22:20;;;;;;;45.13;26.67;;;;;;;10.14;67.94;101596.56;4947176;28;20126;-59
2022/04/19 05:24:45;;;;;;;43.45;26.35;;;;;;;10.24;67.58;101597.72;4936710;28;20782;-59
2022/04/19 05:27:11;;;;;;;44.33;25.77;;;;;;;10.34;67.12;101598.00;4934545;28;20046;-58
2022/04/19 05:29:36;;;;;;;44.05;26.10;;;;;;;10.45;66.76;101604.34;4936707;28;20031;-59
2022/04/19 05:32:07;;;;;;;44.38;26.80;;;;;;;10.51;66.21;101606.25;4936083;28;20255;-59
2022/04/19 05:34:37;;;;;;;45.08;25.30;;;;;;;10.64;66.07;101597.88;4945565;28;20722;-60
2022/04/19 05:37:03;;;;;;;44.33;25.67;;;;;;;10.76;66.00;101598.19;4947541;28;20067;-60
2022/04/19 05:39:29;;;;;;;44.10;25.98;;;;;;;10.86;65.37;101594.03;4918929;28;20839;-59
2022/04/19 05:41:54;;;;;;;44.65;26.15;;;;;;;10.92;65.17;101600.28;4945287;28;20057;-58
2022/04/19 05:44:21;;;;;;;45.33;25.85;;;;;;;11.04;64.89;101601.44;4952127;28;20538;-58
2022/04/19 05:46:47;;;;;;;46.13;25.33;;;;;;;11.13;64.98;101604.25;4940260;28;20035;-60
2022/04/19 05:49:12;;;;;;;45.75;27.15;;;;;;;11.23;64.74;101598.38;4940220;28;20050;-57
2022/04/19 05:51:37;;;;;;;49.13;26.33;;;;;;;11.35;64.52;101606.47;4932733;28;20126;-59
2022/04/19 05:54:03;;;;;;;46.67;26.17;;;;;;;11.48;64.40;101605.03;4938969;28;20312;-58
2022/04/19 05:56:30;;;;;;;48.70;26.08;;;;;;;11.59;64.00;101607.00;4942728;28;20058;-58
2022/04/19 05:58:55;;;;;;;50.10;25.55;;;;;;;11.69;63.79;101605.47;4948639;28;20050;-58
2022/04/19 06:01:21;;;;;;;43.78;25.40;;;;;;;11.81;63.50;101610.09;4932986;28;20131;-59
2022/04/19 06:06:30;;;;;;;40.50;24.17;;;;;;;12.25;61.10;101609.22;4939544;28;20423;-58
2022/04/19 06:08:55;;;;;;;40.03;24.13;;;;;;;12.64;60.16;101605.53;4946281;28;20763;-60
2022/04/19 06:11:21;;;;;;;36.47;22.58;;;;;;;13.34;57.42;101605.78;4927410;28;20047;-59
2022/04/19 06:13:46;;;;;;;34.45;22.55;;;;;;;14.12;54.67;101606.72;4946554;28;20061;-59
2022/04/19 06:16:12;;;;;;;31.98;21.55;;;;;;;15.11;52.20;101612.84;4946712;28;20047;-60
2022/04/19 06:18:37;;;;;;;32.65;20.70;;;;;;;16.36;48.29;101609.88;4928792;28;20314;-60
2022/04/19 06:21:07;;;;;;;32.42;21.27;;;;;;;16.69;47.74;101613.44;4943449;28;20035;-58
2022/04/19 06:23:34;;;;;;;30.10;20.00;;;;;;;17.26;45.11;101610.72;4936288;28;20211;-58
2022/04/19 06:25:59;;;;;;;26.25;18.15;;;;;;;18.26;43.04;101612.09;4945363;28;20069;-59
2022/04/19 06:28:25;;;;;;;25.95;18.20;;;;;;;18.55;41.92;101611.91;4940986;28;20522;-60
2022/04/19 06:30:50;;;;;;;23.98;16.77;;;;;;;18.39;40.68;101611.13;4939041;28;20050;-60
2022/04/19 06:33:16;;;;;;;25.58;17.45;;;;;;;18.18;40.92;101608.63;4935274;28;20043;-60
2022/04/19 06:35:41;;;;;;;22.27;16.50;;;;;;;18.43;39.45;101619.91;4945158;28;20042;-59
2022/04/19 06:38:07;;;;;;;24.48;16.48;;;;;;;18.98;37.66;101608.03;4943361;28;20039;-58
2022/04/19 06:40:33;;;;;;;27.08;17.13;;;;;;;18.69;38.72;101609.16;4927587;28;20035;-59
2022/04/19 06:42:58;;;;;;;28.92;16.25;;;;;;;18.62;38.56;101608.34;4933182;28;20394;-60
2022/04/19 06:45:24;;;;;;;29.20;16.85;;;;;;;18.76;39.15;101609.13;4938580;28;20054;-58
2022/04/19 06:48:01;;;;;;;22.63;16.17;;;;;;;18.92;37.96;101610.72;4939659;28;20047;-57
2022/04/19 06:50:26;;;;;;;21.92;15.90;;;;;;;18.84;39.27;101615.22;4952056;28;20142;-59
2022/04/19 06:52:52;;;;;;;26.20;15.88;;;;;;;19.22;37.31;101617.47;4940440;28;20450;-59
2022/04/19 06:55:19;;;;;;;27.40;15.20;;;;;;;19.79;35.34;101618.63;4929917;28;20050;-58
2022/04/19 06:57:50;;;;;;;22.33;15.32;;;;;;;19.66;35.15;101624.06;4943627;28;20161;-58
2022/04/19 07:00:16;;;;;;;28.58;15.30;;;;;;;19.85;35.56;101622.94;4938966;28;20042;-59
2022/04/19 07:02:44;;;;;;;27.30;14.77;;;;;;;20.09;34.36;101627.03;4942316;28;20057;-58
2022/04/19 07:05:11;;;;;;;21.80;15.15;;;;;;;19.85;37.15;101630.88;4935842;28;20403;-59
2022/04/19 07:07:42;;;;;;;22.33;14.57;;;;;;;20.18;33.40;101622.50;4935231;28;20518;-59
2022/04/19 07:10:10;;;;;;;22.02;14.45;;;;;;;20.25;33.30;101626.78;4941151;28;20620;-58
2022/04/19 07:12:36;;;;;;;20.10;14.40;;;;;;;20.58;33.47;101632.53;4940074;28;20131;-59
2022/04/19 07:15:01;;;;;;;21.25;14.10;;;;;;;20.12;33.00;101627.88;4941224;28;20453;-59
2022/04/19 07:17:27;;;;;;;22.40;14.50;;;;;;;19.82;33.67;101628.28;4937135;28;20054;-59
2022/04/19 07:28:10;;;;;;;24.70;14.55;;;;;;;19.86;34.32;101627.34;4939628;28;20027;-60
2022/04/19 07:30:35;;;;;;;24.58;14.07;;;;;;;19.42;36.33;101639.31;4938956;28;20549;-58
2022/04/19 07:33:02;;;;;;;21.25;14.18;;;;;;;19.08;35.63;101637.91;4947858;28;20054;-60
2022/04/19 07:35:29;;;;;;;21.88;13.88;;;;;;;19.62;35.48;101628.53;4936966;28;20620;-59
2022/04/19 07:37:54;;;;;;;20.23;13.73;;;;;;;19.38;34.68;101636.72;4936588;28;20499;-59
2022/04/19 07:40:19;;;;;;;21.40;14.73;;;;;;;19.19;35.53;101640.44;4939011;28;20062;-59
2022/04/19 07:42:45;;;;;;;26.52;14.50;;;;;;;18.94;34.50;101638.00;4946149;28;20043;-59
2022/04/19 07:45:11;;;;;;;24.05;14.90;;;;;;;18.75;35.44;101639.06;4939943;28;20038;-59
2022/04/19 07:47:36;;;;;;;21.50;15.02;;;;;;;18.47;39.82;101637.50;4935706;28;20113;-59
2022/04/19 07:50:02;;;;;;;33.58;15.32;;;;;;;18.49;38.32;101638.34;4947631;28;20081;-58
2022/04/19 07:52:27;;;;;;;28.95;15.07;;;;;;;18.94;36.02;101630.09;4919993;28;20054;-59
2022/04/19 07:54:53;;;;;;;23.30;14.57;;;;;;;19.49;34.89;101626.03;4939413;28;20587;-60
2022/04/19 07:57:21;;;;;;;21.15;13.73;;;;;;;19.27;35.45;101623.59;4932740;28;20418;-61
2022/04/19 07:59:47;;;;;;;21.67;14.57;;;;;;;19.49;35.70;101626.91;4944644;28;20054;-59
2022/04/19 08:02:14;;;;;;;23.65;14.88;;;;;;;19.41;33.96;101642.84;4938738;28;20402;-59
2022/04/19 08:04:40;;;;;;;19.75;13.98;;;;;;;19.83;34.60;101627.38;4932641;28;20054;-59
2022/04/19 08:07:06;;;;;;;23.15;14.32;;;;;;;19.81;34.76;101635.34;4939877;28;20402;-59
2022/04/19 08:09:31;;;;;;;21.90;13.95;;;;;;;20.49;32.83;101628.22;4933906;28;20553;-59
2022/04/19 08:11:57;;;;;;;27.13;14.65;;;;;;;20.47;34.31;101629.16;4939869;28;20054;-59
2022/04/19 08:14:33;;;;;;;21.25;13.15;;;;;;;20.33;33.42;101637.31;4925689;28;20204;-59
2022/04/19 08:16:59;;;;;;;23.27;13.48;;;;;;;19.94;32.99;101629.91;4938116;28;20039;-58
2022/04/19 08:19:24;;;;;;;23.20;12.50;;;;;;;19.91;33.57;101632.56;4934129;28;20434;-58
2022/04/19 08:21:51;;;;;;;17.65;10.93;;;;;;;19.75;31.03;101638.09;4937204;28;20687;-59
2022/04/19 08:24:16;;;;;;;19.63;11.38;;;;;;;19.95;32.86;101634.28;4942006;28;20506;-58
2022/04/19 08:26:41;;;;;;;16.85;10.50;;;;;;;20.37;30.47;101627.56;4946340;28;20549;-59
2022/04/19 08:29:07;;;;;;;18.92;9.25;;;;;;;20.07;31.88;101627.06;4926317;28;20057;-58
2022/04/19 08:31:34;;;;;;;16.30;9.00;;;;;;;19.79;31.70;101631.84;4938031;28;20305;-59
2022/04/19 08:34:00;;;;;;;13.77;8.63;;;;;;;19.82;32.85;101631.78;4937783;28;20046;-58
2022/04/19 08:36:25;;;;;;;13.07;7.90;;;;;;;19.71;32.26;101636.34;4940771;28;20541;-59
2022/04/19 08:38:51;;;;;;;9.68;6.57;;;;;;;19.83;31.24;101622.09;4934403;28;20124;-59
2022/04/19 08:41:18;;;;;;;10.02;6.00;;;;;;;19.59;31.30;101635.59;4932312;28;20086;-59
2022/04/19 08:43:45;;;;;;;10.15;6.25;;;;;;;19.35;32.82;101634.09;4942204;28;20047;-59
2022/04/19 08:46:11;;;;;;;11.95;6.25;;;;;;;19.53;31.50;101636.56;4944790;28;20508;-59
2022/04/19 08:48:38;;;;;;;11.70;6.70;;;;;;;19.54;32.25;101638.31;4945693;28;20490;-59
2022/04/19 08:51:05;;;;;;;10.07;6.65;;;;;;;19.84;32.44;101634.44;4944680;28;20694;-59
2022/04/19 08:59:06;;;;;;;12.85;7.40;;;;;;;19.95;31.80;101631.63;4945022;28;20447;-58
2022/04/19 09:01:32;;;;;;;11.07;6.50;;;;;;;19.92;30.85;101629.03;4926929;28;20114;-58
2022/04/19 09:03:57;;;;;;;14.13;6.57;;;;;;;19.99;30.33;101631.59;4922622;28;20471;-59
2022/04/19 09:06:52;;;;;;;9.40;6.35;;;;;;;19.72;31.81;101637.22;4941457;28;20049;-59
2022/04/19 09:09:20;;;;;;;;;;;;;;;19.77;30.65;101633.63;4937177;28;20051;-58
2022/04/19 09:11:45;;;;;;;10.50;6.43;;;;;;;19.94;31.50;101635.19;4942006;28;19922;-58
2022/04/19 09:14:10;;;;;;;10.02;6.15;;;;;;;20.04;31.52;101632.41;4942143;28;20147;-58
2022/04/19 09:16:36;;;;;;;11.10;6.72;;;;;;;20.10;29.95;101621.72;4941461;28;20039;-59
2022/04/19 09:19:01;;;;;;;12.80;6.35;;;;;;;20.06;30.87;101622.69;4944633;28;20061;-59
2022/04/19 09:21:37;;;;;;;13.40;6.55;;;;;;;20.35;30.81;101626.69;4934489;28;20126;-58
2022/04/19 09:24:15;;;;;;;9.88;6.63;;;;;;;20.38;31.15;101627.53;4947095;28;20191;-59
2022/04/19 09:26:50;;;;;;;13.75;6.53;;;;;;;20.26;30.43;101625.03;4934021;28;20639;-59
2022/04/19 09:29:21;;;;;;;11.05;6.65;;;;;;;20.25;30.72;101621.50;4932829;28;20046;-58
2022/04/19 09:32:02;;;;;;;10.25;6.90;;;;;;;20.15;31.16;101621.66;4934476;28;20047;-59
2022/04/19 09:34:34;;;;;;;12.07;6.88;;;;;;;20.48;30.89;101622.97;4936536;28;20069;-59
2022/04/19 09:37:13;;;;;;;12.52;7.43;;;;;;;20.63;30.45;101614.75;4945715;28;20041;-58
2022/04/19 09:39:40;;;;;;;10.65;7.43;;;;;;;20.68;31.74;101615.56;4944332;28;20139;-57
2022/04/19 09:42:08;;;;;;;11.35;6.80;;;;;;;20.92;28.79;101609.84;4924990;28;20066;-59
2022/04/19 09:44:41;;;;;;;10.07;6.13;;;;;;;21.12;28.44;101603.31;4930430;28;20170;-58
2022/04/19 09:47:13;;;;;;;9.93;6.00;;;;;;;20.89;27.92;101609.91;4943344;28;20314;-60
2022/04/19 09:49:46;;;;;;;9.38;6.28;;;;;;;21.49;29.55;101614.13;4939112;28;20171;-59
2022/04/19 09:52:14;;;;;;;11.02;6.68;;;;;;;21.02;29.42;101608.81;4935028;28;20153;-58
2022/04/19 09:54:43;;;;;;;9.73;6.50;;;;;;;21.10;29.78;101603.38;4938687;28;20089;-60
2022/04/19 09:57:11;;;;;;;10.32;6.47;;;;;;;21.10;30.49;101608.66;4945719;28;20076;-58
2022/04/19 09:59:46;;;;;;;11.35;6.75;;;;;;;21.24;29.60;101609.31;4942547;28;20038;-59
2022/04/19 10:10:28;;;;;;;9.40;6.40;;;;;;;21.11;29.11;101598.91;4918232;28;20134;-58
2022/04/19 10:12:56;;;;;;;12.98;6.45;;;;;;;20.99;29.35;101600.00;4941347;28;20039;-59
2022/04/19 10:15:22;;;;;;;10.75;6.40;;;;;;;21.20;29.48;101604.97;4930139;28;20109;-60
2022/04/19 10:17:48;;;;;;;10.27;6.72;;;;;;;21.25;27.76;101603.09;4934162;28;20034;-58
2022/04/19 10:20:15;;;;;;;9.70;6.50;;;;;;;20.95;28.29;101601.84;4943656;28;20042;-58
2022/04/19 10:22:48;;;;;;;10.85;6.47;;;;;;;20.98;26.48;101608.91;4939148;28;20144;-58
2022/04/19 10:25:14;;;;;;;12.05;6.47;;;;;;;21.23;27.68;101596.94;4932385;28;20157;-58
2022/04/19 10:27:40;;;;;;;11.20;6.85;;;;;;;21.29;25.62;101603.91;4942167;28;20488;-58
2022/04/19 10:30:07;;;;;;;11.90;6.78;;;;;;;21.42;25.93;101597.47;4944806;28;20062;-59
2022/04/19 10:32:35;;;;;;;12.35;6.80;;;;;;;21.55;26.96;101598.97;4942297;28;20910;-58
2022/04/19 10:35:03;;;;;;;11.48;7.05;;;;;;;21.63;26.97;101598.81;4926943;28;20401;-58
2022/04/19 10:37:29;;;;;;;13.43;7.30;;;;;;;21.57;25.73;101591.84;4937447;28;20209;-59
2022/04/19 10:39:57;;;;;;;12.80;7.20;;;;;;;21.65;26.22;101592.56;4924941;28;20658;-58
2022/04/19 10:42:37;;;;;;;12.35;6.95;;;;;;;21.62;26.69;101600.59;4937225;28;20040;-59
2022/04/19 10:45:15;;;;;;;12.50;7.60;;;;;;;21.42;28.27;101598.34;4936422;28;20082;-58
2022/04/19 10:48:04;;;;;;;12.98;7.60;;;;;;;21.70;26.10;101600.44;4946764;28;20498;-59
2022/04/19 10:50:34;;;;;;;11.95;7.50;;;;;;;21.64;27.13;101592.59;4936467;28;20034;-59
2022/04/19 10:53:03;;;;;;;13.18;7.10;;;;;;;21.78;27.61;101590.50;4930422;28;20034;-58
2022/04/19 10:55:31;;;;;;;13.00;7.35;;;;;;;21.62;26.44;101587.31;4932380;28;20442;-59
2022/04/19 10:58:18;;;;;;;11.88;7.28;;;;;;;21.89;25.71;101588.53;4939972;28;20046;-58
2022/04/19 11:00:57;;;;;;;14.23;7.13;;;;;;;21.77;26.24;101589.63;4938897;28;20065;-58
2022/04/19 11:03:25;;;;;;;12.65;7.15;;;;;;;21.37;26.52;101589.59;4930671;28;20043;-59
2022/04/19 11:05:58;;;;;;;13.10;7.07;;;;;;;21.67;26.58;101581.91;4940959;28;20268;-59
2022/04/19 11:08:26;;;;;;;11.02;7.38;;;;;;;21.95;25.89;101593.72;4929255;28;20057;-59
2022/04/19 11:10:58;;;;;;;14.43;8.10;;;;;;;21.90;26.02;101590.25;4937464;28;20043;-58
2022/04/19 11:13:29;;;;;;;14.20;8.18;;;;;;;21.92;25.74;101590.22;4934460;28;20817;-59
2022/04/19 11:16:11;;;;;;;11.75;7.45;;;;;;;22.15;27.07;101590.59;4933784;28;20510;-58
2022/04/19 11:18:37;;;;;;;15.07;7.63;;;;;;;22.12;26.03;101591.56;4941830;28;20056;-56
2022/04/19 11:21:04;;;;;;;11.98;7.40;;;;;;;21.71;26.04;101583.63;4939450;28;20257;-57
2022/04/19 11:23:44;;;;;;;11.88;7.50;;;;;;;21.82;26.65;101592.22;4940617;28;20274;-58
2022/04/19 11:26:24;;;;;;;13.60;7.90;;;;;;;21.74;26.72;101592.38;4937102;28;20065;-59
2022/04/19 11:29:12;;;;;;;12.02;7.78;;;;;;;21.91;27.01;101594.66;4931503;28;20225;-59
2022/04/19 11:31:43;;;;;;;12.18;7.95;;;;;;;21.99;26.34;101590.09;4931517;28;20762;-57
2022/04/19 11:34:13;;;;;;;12.88;8.10;;;;;;;21.54;26.36;101583.94;4941499;28;20360;-59
2022/04/19 11:36:39;;;;;;;15.65;7.55;;;;;;;21.60;26.59;101588.25;4937797;28;20059;-59
2022/04/19 11:39:04;;;;;;;15.93;7.55;;;;;;;21.58;27.39;101592.72;4914601;28;20062;-60
2022/04/19 11:46:51;;;;;;;14.13;7.50;;;;;;;21.47;25.73;101584.97;4936130;28;20038;-58
2022/04/19 11:49:16;;;;;;;11.68;7.18;;;;;;;21.57;26.05;101575.94;4931556;28;20129;-59
2022/04/19 11:51:49;;;;;;;12.87;7.63;;;;;;;22.12;26.14;101572.09;4936088;28;20194;-58
2022/04/19 11:54:23;;;;;;;11.80;6.57;;;;;;;22.23;24.31;101573.59;4943557;28;20303;-58
2022/04/19 11:56:53;;;;;;;10.30;7.03;;;;;;;22.11;24.10;101567.69;4941032;28;20101;-59